Kingwood, Texas
Current Conditions -  °F | °C
As of 6:53 AM on Thursday 30 Oct 2014 (Local Time) from KIAH Reporting Station
Few Clouds Few Clouds  
Wind Chill: 56°   Ceiling: Unl
Heat Index: 56°   Visibility: 10mi
Dew Point: 52°   Wind: 5mph
Humidity: 87%   Direction: 50°NE
Pressure: 30.11"   Gusts: NA
Location:  30.05°N, 95.18°W
Report Text: KIAH 301153Z 05004KT 10SM FEW250 13/11 A3011 RMK AO2 SLP197 T01330111 10172 20133 51006
Loading
Personal Weather Stations






























Interactive Weather Map
Tropical Storm Tracking
New forecast layout! Learn more

10-Day Weather Forecast

Advertisements
Track Severe Weather on mobile